Terminal Aerodrome Forecast
Issued by NWS

Home | Current Version | Previous Version | Text Only | Print | Product List | Glossary Off
Versions: 1 2 3 4 5 6 7 8 9 10 11 12 13 14 15 16

121
FTUS43 KMPX 221120
TAFRWF
TAF
KRWF 221120Z 2212/2312 12007KT P6SM SCT110
     FM221500 15014G22KT P6SM SCT050 BKN090
     FM222200 15014G24KT P6SM BKN050=

USA.gov is the U.S. government's official web portal to all federal, state and local government web resources and services.